sensor_id;sensor_type;location;lat;lon;timestamp;P1;durP1;ratioP1;P2;durP2;ratioP2
35243;SDS011;37916;52.160;21.066;2024-03-08T00:00:53;41.40;;;21.58;;
35243;SDS011;37916;52.160;21.066;2024-03-08T00:10:54;39.78;;;21.60;;
35243;SDS011;37916;52.160;21.066;2024-03-08T00:20:55;43.60;;;23.05;;
35243;SDS011;37916;52.160;21.066;2024-03-08T00:30:56;40.10;;;20.95;;
35243;SDS011;37916;52.160;21.066;2024-03-08T00:40:57;44.22;;;21.77;;
35243;SDS011;37916;52.160;21.066;2024-03-08T00:50:58;43.15;;;20.42;;
35243;SDS011;37916;52.160;21.066;2024-03-08T01:00:59;36.13;;;20.48;;
35243;SDS011;37916;52.160;21.066;2024-03-08T01:11:00;39.92;;;19.95;;
35243;SDS011;37916;52.160;21.066;2024-03-08T01:21:01;40.15;;;19.98;;
35243;SDS011;37916;52.160;21.066;2024-03-08T01:31:03;37.05;;;18.48;;
35243;SDS011;37916;52.160;21.066;2024-03-08T01:41:05;36.80;;;20.00;;
35243;SDS011;37916;52.160;21.066;2024-03-08T01:51:06;36.10;;;20.27;;
35243;SDS011;37916;52.160;21.066;2024-03-08T02:01:07;45.28;;;21.50;;
35243;SDS011;37916;52.160;21.066;2024-03-08T02:11:09;44.90;;;22.33;;
35243;SDS011;37916;52.160;21.066;2024-03-08T02:21:10;43.55;;;22.08;;
35243;SDS011;37916;52.160;21.066;2024-03-08T02:31:11;37.50;;;19.25;;
35243;SDS011;37916;52.160;21.066;2024-03-08T02:41:12;40.38;;;20.45;;
35243;SDS011;37916;52.160;21.066;2024-03-08T02:51:22;40.58;;;20.25;;
35243;SDS011;37916;52.160;21.066;2024-03-08T03:01:23;37.10;;;19.70;;
35243;SDS011;37916;52.160;21.066;2024-03-08T03:11:24;39.55;;;18.88;;
35243;SDS011;37916;52.160;21.066;2024-03-08T03:21:28;42.47;;;19.15;;
35243;SDS011;37916;52.160;21.066;2024-03-08T03:31:31;36.35;;;18.73;;
35243;SDS011;37916;52.160;21.066;2024-03-08T03:41:32;40.35;;;19.70;;
35243;SDS011;37916;52.160;21.066;2024-03-08T03:51:34;43.53;;;21.13;;
35243;SDS011;37916;52.160;21.066;2024-03-08T04:01:35;41.65;;;21.17;;
35243;SDS011;37916;52.160;21.066;2024-03-08T04:11:36;42.13;;;20.85;;
35243;SDS011;37916;52.160;21.066;2024-03-08T04:21:37;41.57;;;20.30;;
35243;SDS011;37916;52.160;21.066;2024-03-08T04:31:38;46.88;;;21.95;;
35243;SDS011;37916;52.160;21.066;2024-03-08T04:41:39;44.47;;;21.38;;
35243;SDS011;37916;52.160;21.066;2024-03-08T04:51:40;46.17;;;22.63;;
35243;SDS011;37916;52.160;21.066;2024-03-08T05:01:41;48.13;;;22.05;;
35243;SDS011;37916;52.160;21.066;2024-03-08T05:11:43;45.60;;;21.80;;
35243;SDS011;37916;52.160;21.066;2024-03-08T05:21:44;42.38;;;20.60;;
35243;SDS011;37916;52.160;21.066;2024-03-08T05:31:49;45.92;;;23.77;;
35243;SDS011;37916;52.160;21.066;2024-03-08T05:41:52;52.33;;;24.00;;
35243;SDS011;37916;52.160;21.066;2024-03-08T05:51:56;41.03;;;23.47;;
35243;SDS011;37916;52.160;21.066;2024-03-08T06:02:06;50.42;;;23.02;;
35243;SDS011;37916;52.160;21.066;2024-03-08T06:12:20;39.25;;;21.35;;
35243;SDS011;37916;52.160;21.066;2024-03-08T06:33:24;57.63;;;26.33;;
35243;SDS011;37916;52.160;21.066;2024-03-08T07:24:24;52.17;;;27.58;;
35243;SDS011;37916;52.160;21.066;2024-03-08T07:34:38;51.63;;;25.07;;
35243;SDS011;37916;52.160;21.066;2024-03-08T07:44:39;46.08;;;26.08;;
35243;SDS011;37916;52.160;21.066;2024-03-08T07:54:43;37.25;;;23.65;;
35243;SDS011;37916;52.160;21.066;2024-03-08T08:04:52;35.92;;;20.55;;
35243;SDS011;37916;52.160;21.066;2024-03-08T08:14:57;31.50;;;20.17;;
35243;SDS011;37916;52.160;21.066;2024-03-08T08:25:06;27.77;;;19.10;;
35243;SDS011;37916;52.160;21.066;2024-03-08T08:35:15;33.60;;;18.55;;
35243;SDS011;37916;52.160;21.066;2024-03-08T08:45:19;23.90;;;15.63;;
35243;SDS011;37916;52.160;21.066;2024-03-08T08:55:20;24.85;;;14.88;;
35243;SDS011;37916;52.160;21.066;2024-03-08T09:05:25;21.75;;;11.02;;
35243;SDS011;37916;52.160;21.066;2024-03-08T09:15:26;16.88;;;9.90;;
35243;SDS011;37916;52.160;21.066;2024-03-08T09:25:28;19.02;;;10.15;;
35243;SDS011;37916;52.160;21.066;2024-03-08T09:35:29;19.77;;;10.30;;
35243;SDS011;37916;52.160;21.066;2024-03-08T09:45:30;22.23;;;10.00;;
35243;SDS011;37916;52.160;21.066;2024-03-08T09:55:32;18.30;;;10.38;;
35243;SDS011;37916;52.160;21.066;2024-03-08T10:05:36;16.80;;;9.38;;
35243;SDS011;37916;52.160;21.066;2024-03-08T10:15:38;35.42;;;10.73;;
35243;SDS011;37916;52.160;21.066;2024-03-08T10:25:40;16.08;;;8.90;;
35243;SDS011;37916;52.160;21.066;2024-03-08T10:35:42;18.90;;;9.77;;
35243;SDS011;37916;52.160;21.066;2024-03-08T10:45:43;15.57;;;8.05;;
35243;SDS011;37916;52.160;21.066;2024-03-08T10:55:44;18.67;;;9.20;;
35243;SDS011;37916;52.160;21.066;2024-03-08T11:05:47;16.17;;;8.15;;
35243;SDS011;37916;52.160;21.066;2024-03-08T11:15:48;13.52;;;8.10;;
35243;SDS011;37916;52.160;21.066;2024-03-08T11:25:49;16.35;;;8.35;;
35243;SDS011;37916;52.160;21.066;2024-03-08T11:35:53;14.90;;;8.35;;
35243;SDS011;37916;52.160;21.066;2024-03-08T11:46:10;12.82;;;7.15;;
35243;SDS011;37916;52.160;21.066;2024-03-08T11:56:13;13.43;;;6.97;;
35243;SDS011;37916;52.160;21.066;2024-03-08T12:06:14;12.55;;;7.80;;
35243;SDS011;37916;52.160;21.066;2024-03-08T12:16:15;15.85;;;7.75;;
35243;SDS011;37916;52.160;21.066;2024-03-08T12:26:18;17.27;;;7.65;;
35243;SDS011;37916;52.160;21.066;2024-03-08T12:36:24;27.60;;;7.93;;
35243;SDS011;37916;52.160;21.066;2024-03-08T12:46:25;16.00;;;7.35;;
35243;SDS011;37916;52.160;21.066;2024-03-08T12:56:33;10.60;;;6.78;;
35243;SDS011;37916;52.160;21.066;2024-03-08T13:16:59;11.73;;;6.65;;
35243;SDS011;37916;52.160;21.066;2024-03-08T13:37:45;14.02;;;6.47;;
35243;SDS011;37916;52.160;21.066;2024-03-08T13:47:46;12.85;;;6.68;;
35243;SDS011;37916;52.160;21.066;2024-03-08T13:57:48;15.18;;;6.93;;
35243;SDS011;37916;52.160;21.066;2024-03-08T14:07:49;15.02;;;7.07;;
35243;SDS011;37916;52.160;21.066;2024-03-08T14:18:04;13.75;;;6.63;;
35243;SDS011;37916;52.160;21.066;2024-03-08T14:38:18;19.10;;;7.63;;
35243;SDS011;37916;52.160;21.066;2024-03-08T14:48:20;15.18;;;7.93;;
35243;SDS011;37916;52.160;21.066;2024-03-08T14:58:21;17.10;;;7.68;;
35243;SDS011;37916;52.160;21.066;2024-03-08T15:08:36;21.02;;;9.07;;
35243;SDS011;37916;52.160;21.066;2024-03-08T15:18:38;16.13;;;7.57;;
35243;SDS011;37916;52.160;21.066;2024-03-08T15:28:39;16.92;;;7.43;;
35243;SDS011;37916;52.160;21.066;2024-03-08T15:38:40;15.63;;;7.35;;
35243;SDS011;37916;52.160;21.066;2024-03-08T16:41:41;14.27;;;7.88;;
35243;SDS011;37916;52.160;21.066;2024-03-08T16:51:42;17.95;;;8.35;;
35243;SDS011;37916;52.160;21.066;2024-03-08T17:01:43;16.13;;;7.75;;
35243;SDS011;37916;52.160;21.066;2024-03-08T17:11:51;15.80;;;7.80;;
35243;SDS011;37916;52.160;21.066;2024-03-08T17:21:52;16.80;;;7.03;;
35243;SDS011;37916;52.160;21.066;2024-03-08T17:31:54;18.58;;;8.27;;
35243;SDS011;37916;52.160;21.066;2024-03-08T17:41:55;17.15;;;8.02;;
35243;SDS011;37916;52.160;21.066;2024-03-08T17:51:56;20.65;;;8.10;;
35243;SDS011;37916;52.160;21.066;2024-03-08T18:12:27;34.40;;;11.27;;
35243;SDS011;37916;52.160;21.066;2024-03-08T18:22:30;17.38;;;7.80;;
35243;SDS011;37916;52.160;21.066;2024-03-08T18:32:32;23.08;;;9.43;;
35243;SDS011;37916;52.160;21.066;2024-03-08T18:42:34;27.02;;;9.10;;
35243;SDS011;37916;52.160;21.066;2024-03-08T18:52:35;22.17;;;9.43;;
35243;SDS011;37916;52.160;21.066;2024-03-08T19:02:36;27.17;;;9.30;;
35243;SDS011;37916;52.160;21.066;2024-03-08T19:23:19;27.55;;;9.88;;
35243;SDS011;37916;52.160;21.066;2024-03-08T19:33:27;25.42;;;8.93;;
35243;SDS011;37916;52.160;21.066;2024-03-08T19:53:47;21.77;;;9.23;;
35243;SDS011;37916;52.160;21.066;2024-03-08T21:05:05;27.45;;;11.43;;
35243;SDS011;37916;52.160;21.066;2024-03-08T21:15:06;25.40;;;12.52;;
35243;SDS011;37916;52.160;21.066;2024-03-08T21:25:15;30.23;;;12.18;;
35243;SDS011;37916;52.160;21.066;2024-03-08T21:35:16;23.23;;;11.23;;
35243;SDS011;37916;52.160;21.066;2024-03-08T21:45:21;26.77;;;11.05;;
35243;SDS011;37916;52.160;21.066;2024-03-08T21:55:26;25.85;;;10.10;;
35243;SDS011;37916;52.160;21.066;2024-03-08T22:05:27;24.92;;;10.70;;
35243;SDS011;37916;52.160;21.066;2024-03-08T22:15:29;25.05;;;11.30;;
35243;SDS011;37916;52.160;21.066;2024-03-08T22:25:30;31.17;;;12.55;;
35243;SDS011;37916;52.160;21.066;2024-03-08T22:35:31;27.67;;;11.57;;
35243;SDS011;37916;52.160;21.066;2024-03-08T22:45:33;30.30;;;14.05;;
35243;SDS011;37916;52.160;21.066;2024-03-08T22:55:34;36.00;;;14.93;;
35243;SDS011;37916;52.160;21.066;2024-03-08T23:05:36;41.50;;;14.00;;
35243;SDS011;37916;52.160;21.066;2024-03-08T23:15:44;37.50;;;14.60;;
35243;SDS011;37916;52.160;21.066;2024-03-08T23:25:45;29.77;;;14.38;;
35243;SDS011;37916;52.160;21.066;2024-03-08T23:35:46;34.78;;;15.70;;
35243;SDS011;37916;52.160;21.066;2024-03-08T23:45:47;43.13;;;19.08;;
35243;SDS011;37916;52.160;21.066;2024-03-08T23:55:48;29.58;;;14.52;;
